Stéphane Pérez

Olheiro-Chefe - Stade Brestois
6 Nov 2027
Sábado
Processo

Personalidade

Adaptabilidade (16) Ambição (9) Controvérsia (17) Lealdade (15) Pressão (7) Profissionalismo (2) Espírito Esportivo (18) Temperamento (8)

Perfil

Estilo de Treinamento Democrático
Licença Continental A
Determinação 5
Gestão de Pessoas 13
Motivação 13
Disciplina 10
Satisfação no Trabalho
100%
Fadiga
0%
Função Olheiro-Chefe
Salário 64.2K p/s
Contrato 14.03.2029

Desempenho

Comportamento Bom
Eficácia do Treinamento
26%
Desenvolvimento do Jogador
60%
Prevenção de Lesões
40%
Implementação Tática
25%

Eventos Recentes

Participou de uma reunião de recrutamento agora
Participou de uma reunião de recrutamento agora
Recomendou um alvo de transferência agora
Participou de uma reunião de recrutamento 7d atrás
Participou de uma reunião de recrutamento 7d atrás
Recomendou um alvo de transferência 7d atrás
Participou de uma reunião de recrutamento 7d atrás
Participou de uma reunião de recrutamento 7d atrás

Monitorando agora

188
Jogador Clube Status Habilidade Confiança Observado Última observação Último voto
Guy Noël Zohouri Le Havre AC Relatório pronto 109 / 116 76% 1 26.07.2027 -
Christos Mouzakitis Hull City Ativo 139 / 143 40% 2 21.07.2027 -
Sascha Britschgi Catanzaro Ativo 118 / 120 40% 2 21.07.2027 -
Dayann Methalie Everton Ativo 138 / 145 40% 1 21.07.2027 -
Joel McGregor Swindon Town Ativo 99 / 97 40% 1 13.07.2027 -
Milan Roganović Racing Genk Ativo 110 / 127 40% 2 05.07.2027 -
Thomas Alderweireld Dijon Ativo 130 / 137 40% 2 05.07.2027 -
Caleb Yirenkyi Coventry City Ativo 137 / 135 40% 1 05.07.2027 -
Maeson King Blackpool Ativo 113 / 110 40% 2 29.06.2027 -
Gladson Sulemana Liberty Professionals Ativo 88 / 97 40% 1 29.06.2027 -
Mohamed Moussa Koïta Djoliba Ativo 99 / 99 40% 1 29.06.2027 -
Lucas Høgsberg Paris Saint-Germain Ativo 141 / 133 40% 2 14.06.2027 -
Mohammed El Âdfaoui Charleroi Ativo 106 / 122 40% 1 14.06.2027 -
Roberto Alvarado Porto Negociando 139 / 139 66% 1 01.06.2027 -
Facundo Torres AIK Negociando 134 / 134 67% 1 01.06.2027 -
Sam Curtis Swindon Town Ativo 102 / 107 40% 2 31.05.2027 -
Mattéo Tramoni Pisa Ativo 136 / 138 40% 5 29.05.2027 -
Chemsdine Talbi Sunderland Ativo 147 / 142 40% 4 28.05.2027 -
Roger François Udinese Ativo 143 / 150 40% 7 28.05.2027 -
Ronald Swansea City Ativo 126 / 123 40% 1 28.05.2027 -
Tristan Crama Millwall Ativo 121 / 119 40% 5 27.05.2027 -
Enzo Le Fée Sunderland Ativo 143 / 132 40% 7 26.05.2027 -
Zeidane Inoussa Swansea City Ativo 128 / 128 40% 1 26.05.2027 -
Evan N'Dicka AS Roma Ativo 155 / 148 40% 1 26.05.2027 -
Nathan Collins Brentford Ativo 146 / 141 40% 1 26.05.2027 -
Jacob Greaves Ipswich Town Ativo 138 / 132 40% 1 26.05.2027 -
Ilyes Najim Waasland-Beveren Ativo 117 / 122 40% 8 24.05.2027 -
Abdelkahar Kadri KAA Gent Ativo 129 / 130 40% 4 24.05.2027 -
Osame Sahraoui LOSC Lille Ativo 138 / 148 40% 8 23.05.2027 -
Brooke Norton-Cuffy Hull City Ativo 141 / 143 40% 2 23.05.2027 -
Alex Scott Bournemouth Ativo 153 / 150 40% 2 23.05.2027 -
Cian Ashford Cardiff City Ativo 114 / 122 40% 2 23.05.2027 -
Bobby Thomas Coventry City Ativo 130 / 137 40% 1 23.05.2027 -
Ismaël Doukouré RC Strasbourg Ativo 142 / 146 40% 2 22.05.2027 -
Milan van Ewijk Coventry City Ativo 128 / 134 40% 1 22.05.2027 -
Boubacar Kamara Aston Villa Ativo 167 / 160 40% 9 20.05.2027 -
Adrien Truffert Bournemouth Ativo 152 / 156 40% 15 20.05.2027 -
Lamine Camara Monaco Ativo 140 / 147 40% 2 20.05.2027 -
Thiago Almada Fiorentina Ativo 147 / 150 40% 3 20.05.2027 -
Nico González Newcastle United Ativo 163 / 160 40% 1 20.05.2027 -
Ansu Fati Monaco Ativo 141 / 148 40% 9 18.05.2027 -
Mohamed-Ali Cho Hull City Ativo 138 / 132 40% 5 18.05.2027 -
Félix Lemaréchal Club Brugge Ativo 140 / 145 40% 5 18.05.2027 -
Enzo Loiodice KAA Gent Ativo 130 / 130 40% 7 17.05.2027 -
Dylan Ourega Westerlo Ativo 116 / 120 40% 2 17.05.2027 -
Lucas Da Cunha Como Ativo 148 / 152 40% 6 16.05.2027 -
Isaiah Jones Luton Town Ativo 127 / 116 40% 1 15.05.2027 -
Emile Smith Rowe Fulham Ativo 149 / 153 40% 1 14.05.2027 -
Marley Aké Zulte Waregem Ativo 123 / 120 40% 3 13.05.2027 -
Josué Casimir AJ Auxerre Ativo 128 / 136 40% 3 13.05.2027 -
Brennan Johnson Everton Ativo 142 / 147 40% 6 12.05.2027 -
Dango Ouattara Brentford Ativo 149 / 153 40% 1 11.05.2027 -
Kevin Schade Brentford Ativo 156 / 147 40% 3 09.05.2027 -
Manu Koné AS Roma Ativo 166 / 161 40% 10 08.05.2027 -
Kevin Fulham Ativo 151 / 147 40% 5 08.05.2027 -
Tyrell Malacia Derby County Ativo 137 / 136 40% 2 08.05.2027 -
Tiago Santos LOSC Lille Ativo 142 / 151 40% 2 08.05.2027 -
Habib Diarra Sunderland Ativo 142 / 141 40% 1 08.05.2027 -
Yankuba Minteh Brighton Ativo 155 / 153 40% 2 07.05.2027 -
Finn Azaz Southampton Ativo 132 / 123 40% 2 05.05.2027 -
Ilias Sebaoui Sint-Truiden Ativo 127 / 133 40% 2 04.05.2027 -
Julio Enciso Ipswich Town Ativo 151 / 141 40% 2 04.05.2027 Mais informações
Naïs Djouahra Arouca Ativo 131 / 124 40% 4 03.05.2027 -
Thibaud Verlinden OH Leuven Ativo 124 / 116 40% 7 03.05.2027 -
Wilson Isidor Sunderland Ativo 140 / 138 40% 2 30.04.2027 -
Mamadou Diakhon Club Brugge Ativo 122 / 133 40% 7 27.04.2027 -
Adriano Bertaccini Anderlecht Ativo 126 / 127 40% 5 25.04.2027 -
Himad Abdelli Olympique de Marseille Ativo 141 / 131 40% 2 25.04.2027 -
Roberto Fernández Braga Ativo 142 / 143 40% 3 22.04.2027 -
Gonçalo Oliveira Benfica Ativo 106 / 117 40% 1 22.04.2027 -
Lamine Cissé Peterborough United Ativo 120 / 114 40% 7 19.04.2027 -
Ethan Mbappé LOSC Lille Ativo 132 / 144 40% 1 17.04.2027 -
Pavel Šulc Olympique Lyonnais Ativo 148 / 131 40% 4 12.04.2027 -
Aimé Omgba KAA Gent Ativo 128 / 130 40% 3 10.04.2027 -
James Garner Everton Ativo 151 / 147 40% 2 10.04.2027 -
Jordan Teze Monaco Ativo 143 / 130 40% 1 10.04.2027 -
Soungoutou Magassa West Ham United Ativo 133 / 142 40% 3 06.04.2027 -
Arthur Atta Fiorentina Ativo 142 / 143 40% 2 06.04.2027 -
Nicolas Jackson Aston Villa Ativo 145 / 143 40% 1 06.04.2027 -
Pau Víctor Estrela da Amadora Ativo 141 / 138 40% 2 03.04.2027 -
Abner Vinicius Olympique Lyonnais Ativo 132 / 128 40% 1 03.04.2027 -
Arthur Avom Ebong FC Lorient Ativo 130 / 143 40% 2 01.04.2027 -
Samson Baidoo RC Lens Ativo 147 / 144 40% 1 01.04.2027 -
Ilay Camara Anderlecht Ativo 133 / 136 40% 7 27.03.2027 -
Amadou Onana Newcastle United Ativo 157 / 148 40% 3 25.03.2027 -
Adam Wharton Crystal Palace Ativo 148 / 157 40% 2 25.03.2027 -
Nacer Mignolet KV Oostende Ativo 131 / 133 40% 4 23.03.2027 -
Relebohile Mofokeng Orlando Pirates Ativo 119 / 114 40% 2 20.03.2027 -
Moïse Bombito OGC Nice Ativo 141 / 129 40% 1 20.03.2027 -
Diego Coppola Paris FC Ativo 143 / 139 40% 1 20.03.2027 -
Bill Antonio KV Mechelen Ativo 120 / 124 40% 5 18.03.2027 -
Sofiane Diop OGC Nice Ativo 142 / 147 40% 3 16.03.2027 -
Alexsandro Ribeiro LOSC Lille Ativo 151 / 154 40% 1 16.03.2027 -
Sven Botman Newcastle United Ativo 156 / 158 40% 1 15.03.2027 -
Louis Mouton Angers SCO Ativo 129 / 134 40% 1 15.03.2027 -
André Wolverhampton Ativo 140 / 140 40% 1 08.03.2027 -
Tyler Morton Olympique Lyonnais Ativo 148 / 142 40% 1 07.03.2027 -
Odilon Kossounou Atalanta Ativo 142 / 141 40% 1 07.03.2027 -
Myron van Brederode KV Mechelen Ativo 125 / 117 40% 2 06.03.2027 -
Antoine Colassin Charleroi Ativo 122 / 119 40% 1 28.02.2027 -
Carlos Vicente Udinese Ativo 147 / 134 40% 1 28.02.2027 -
Daan Heymans Racing Genk Ativo 125 / 131 40% 1 27.02.2027 -
Thorgan Castagne KV Oostende Ativo 127 / 123 40% 1 25.02.2027 -
Thomas Claes Zulte Waregem Ativo 114 / 119 40% 1 19.02.2027 -
Thomas Van Den Keybus Westerlo Ativo 116 / 119 40% 1 17.02.2027 -
Matteo Dams Club Brugge Ativo 130 / 124 40% 1 16.02.2027 -
Maksim Kireev KV Mechelen Ativo 125 / 129 40% 1 15.02.2027 -
Mardochée Nzita Charleroi Ativo 121 / 120 40% 2 13.02.2027 -
Tristan Degreef Anderlecht Ativo 126 / 128 40% 1 13.02.2027 -
Zinho Castagne KV Oostende Ativo 130 / 136 40% 2 12.02.2027 -
Matisse Samoise KAA Gent Ativo 125 / 125 40% 3 08.02.2027 -
Makan Aïko Tondela Ativo 120 / 121 40% 1 04.02.2027 -
Marquinhos Spartak Moscow Ativo 141 / 141 40% 1 02.02.2027 -
Ivan M'Bahia Clermont Foot Ativo 116 / 116 40% 3 07.01.2027 -
Pape Diong Westerlo Ativo 111 / 123 40% 1 07.01.2027 -
Ibrahim Coulibaly Clermont Foot Ativo 108 / 106 40% 1 07.01.2027 -
Gady Beyuku Blackburn Rovers Ativo 118 / 112 40% 1 05.01.2027 -
Noah Nartey Olympique Lyonnais Ativo 136 / 136 40% 2 04.01.2027 -
Kyriani Sabbe Club Brugge Ativo 120 / 123 40% 1 03.01.2027 -
Raúl Rangel Brighton Negociando 132 / 132 66% 1 01.01.2027 -
Erick Sánchez Valladolid Negociando 139 / 139 68% 1 01.01.2027 -
José Pachuca Puebla Ativo 113 / 125 40% 1 01.01.2027 -
Kostantis Tzolakis Hull City Ativo 136 / 149 40% 4 29.12.2026 Observar
Hugo Souza Corinthians Ativo 138 / 134 40% 1 29.12.2026 -
Ryotaro Araki Sint-Truiden Ativo 118 / 126 40% 1 28.12.2026 -
Anthony Patterson Wrexham Ativo 135 / 127 40% 4 27.12.2026 -
Matvey Safonov Paris Saint-Germain Ativo 151 / 144 40% 2 27.12.2026 -
Massiré Gassama Binga Ativo 94 / 96 40% 3 27.12.2026 -
Lukas Jensen Millwall Ativo 115 / 113 40% 1 23.12.2026 -
Hugo Constant Sheffield United Ativo 96 / 99 40% 1 23.12.2026 -
Adnan Carrasco FC Nantes Negociando 146 / 151 40% 1 23.12.2026 -
Beau Reus Waasland-Beveren Ativo 119 / 130 40% 3 21.12.2026 -
Jakub Surovčík Sparta Prague Ativo 104 / 108 40% 1 21.12.2026 -
Danylo Sikan Anderlecht Ativo 124 / 128 40% 1 21.12.2026 -
Josh Keeley Luton Town Ativo 122 / 119 40% 4 18.12.2026 -
Grégoire Coudert Burnley Ativo 125 / 131 40% 2 17.12.2026 -
Taye Ashby-Hammond Cheltenham Town Ativo 101 / 110 40% 1 17.12.2026 -
Leo Kokubo Sint-Truiden Ativo 109 / 124 40% 2 15.12.2026 -
Killian Cahill Leyton Orient Ativo 105 / 96 40% 1 14.12.2026 -
Gaëtan Poussin Red Star Ativo 131 / 123 40% 2 13.12.2026 -
Robin Risser RC Lens Ativo 134 / 137 40% 4 13.12.2026 -
Berke Özer LOSC Lille Ativo 143 / 133 40% 3 12.12.2026 -
Evidence Billiat Ajax Cape Town Ativo 107 / 101 40% 1 12.12.2026 -
Abdallah Sima RC Lens Ativo 137 / 133 40% 1 11.12.2026 -
Guillaume Restes Toulouse FC Ativo 134 / 141 40% 1 11.12.2026 -
Williams Mahlangu SuperSport United Ativo 109 / 125 40% 3 10.12.2026 -
Carl Rushworth Coventry City Ativo 142 / 128 40% 4 09.12.2026 Observar
Felipe Zenobio Tigre Ativo 129 / 130 40% 2 08.12.2026 -
George Wickens Lincoln City Ativo 108 / 119 40% 3 06.12.2026 -
Alkalifa Coulibaly Onze Createurs Ativo 103 / 102 40% 1 05.12.2026 -
Julien Lamy Lokomotiv Plovdiv Ativo 95 / 93 40% 1 05.12.2026 -
Jacques Siwe Rubin Ativo 117 / 124 40% 1 05.12.2026 -
Oumar Coulibaly Djoliba Ativo 90 / 104 40% 2 03.12.2026 -
Héctor Holguín Morelia Ativo 106 / 113 40% 1 03.12.2026 -
Andreas Jungdal Westerlo Ativo 115 / 122 40% 2 02.12.2026 -
Illan Meslier Arsenal Ativo 132 / 131 40% 3 01.12.2026 -
Radek Vítek Middlesbrough Ativo 137 / 128 40% 1 01.12.2026 -
N'Golo Traoré Stade Malien Ativo 102 / 103 40% 2 30.11.2026 -
Mads Hermansen West Ham United Ativo 133 / 135 40% 1 30.11.2026 -
Marcelin Mbahbi Cotonsport Garoua Ativo 99 / 94 40% 2 28.11.2026 -
Marin Benko Zadar Ativo 135 / 133 40% 1 27.11.2026 -
Tiago Araújo KAA Gent Ativo 113 / 112 40% 2 24.11.2026 -
Nathan Bishop AFC Wimbledon Ativo 100 / 107 40% 2 24.11.2026 -
Olivier Boscagli Brighton Ativo 142 / 146 40% 1 24.11.2026 -
Bernardo Fontes Braga Ativo 131 / 125 40% 1 24.11.2026 -
Marco Kana Anderlecht Ativo 130 / 134 40% 1 21.11.2026 -
Arno Verschueren Waasland-Beveren Ativo 122 / 126 40% 1 21.11.2026 -
Yaimar Medina Racing Genk Ativo 124 / 127 40% 1 19.11.2026 -
Anton Tanghe Zulte Waregem Ativo 107 / 105 40% 1 18.11.2026 -
Noussair Mazraoui Manchester United Ativo 149 / 154 40% 1 18.11.2026 -
Yehvann Diouf OGC Nice Ativo 136 / 145 40% 1 15.11.2026 -
Mark Travers Everton Ativo 139 / 128 40% 2 13.11.2026 -
Đorđe Petrović Bournemouth Ativo 151 / 149 40% 1 10.11.2026 -
João Félix Aston Villa Ativo 150 / 150 40% 1 09.11.2026 -
Samuel Soares Benfica Ativo 130 / 136 40% 1 06.11.2026 -
Amadou Haïdara RC Lens Ativo 146 / 134 40% 1 05.11.2026 -
Malo Gusto Chelsea Ativo 144 / 147 40% 1 05.11.2026 -
Aiham Ousou Charleroi Ativo 123 / 127 40% 1 05.11.2026 -
Ryan Merlen Sint-Truiden Ativo 111 / 112 40% 1 02.11.2026 -
Maximiliano Caufriez KV Kortrijk Ativo 122 / 121 40% 1 02.11.2026 -
Christian Nainggolan Mouscron Ativo 120 / 116 40% 1 08.10.2026 -
José Marsà KV Mechelen Ativo 121 / 121 40% 1 08.10.2026 -
Nordi Mukiele Sunderland Ativo 144 / 137 40% 1 06.10.2026 -
Siebe Van der Heyden KAA Gent Ativo 123 / 113 40% 1 11.09.2026 -
Marlon Fossey Standard Liege Ativo 132 / 132 40% 1 11.09.2026 -
Stanislav Agkatsev TSG Hoffenheim Negociando 132 / 133 66% 1 31.08.2026 -
Arsène Kouassi FC Lorient Ativo 118 / 129 72% 1 31.08.2026 Aprovar
Rico Lewis Manchester City Ativo 145 / 146 40% 1 31.08.2026 -